Pagrindinis puslapis
METAR-TAF:

METAR-TAF

Oro uostai :

Dalianas, Kinija

platuma: 38-54N, ilguma: 121-38E, Aukštis: 97 m

Dabartinis oras

Ataskaita buvo paskelbta 29 minutes, ne 20:30 UTC
Vėjas 4 kt iš Vakarų
Temperatūra -6°C
Drėgmė 93%
Slėgis 1026 hPa
Matomumas: 6000 m

METAR: ZYTL 262030Z 27002MPS 6000 NSC M06/M07 Q1026 NOSIG

Laikas: 04:59 (20:59 UTC)

Prognozė

Ataskaita buvo paskelbta 5 valandos ir 39 minutes, ne 15:20 UTC
Prognozė galioja nuo 26 metu 18 UTC su 27 metu 18 UTC
Vėjas 8 kt iš Šiaurės/Šiaurės Rytų
Matomumas: 3000 m
Išsisklaidę debesys ne aukštis 3300 ft
rūkana
Laikinai
nuo 26 metu 18 UTC su 26 metu 24 UTC
Matomumas: 0500 m
Išsisklaidę debesys ne aukštis 500 ft
Su prošvaistėmis ne aukštis 1000 ft
Su prošvaistėmis ne aukštis 2600 ft
įšaldymas rūko
Tapsmas
nuo 27 metu 05 UTC su 27 metu 06 UTC
Vėjas 10 kt iš Pietų/Pietryčių

TAF: ZYTL 261520Z 2618/2718 03004MPS 3000 BR SCT033 TX04/2706Z TNM06/2621Z TEMPO 2618/2624 0500 FZFG SCT005 BKN010 BKN026 BECMG 2705/2706 16005MPS

Orai ataskaitas ir orų prognozės (METAR, TAF).

turimą stotys yra geltonos ir raudonos taškus žemėlapyje.

Perkelti pele per norėdami pamatyti stoties vardą.

Tada spustelėkite, norėdami matyti oro stebėjimo ir prognozės.

Norėdami pakeisti žemėlapį: spustelėkite ant žalios mygtukų su juodo kryžiaus žemyn,; žalią mygtuką su brūkšneliu, jei norite nutolinti; arba žalių rodyklių gretimoms žemėlapius.


METAR-TAF: